sensor_id;sensor_type;location;lat;lon;timestamp;P1;durP1;ratioP1;P2;durP2;ratioP2
7563;SDS011;3823;53.586;10.040;2022-10-30T00:00:22;23.40;;;16.33;;
7563;SDS011;3823;53.586;10.040;2022-10-30T00:02:47;28.23;;;16.55;;
7563;SDS011;3823;53.586;10.040;2022-10-30T00:05:13;33.60;;;15.80;;
7563;SDS011;3823;53.586;10.040;2022-10-30T00:07:39;31.05;;;16.90;;
7563;SDS011;3823;53.586;10.040;2022-10-30T00:10:05;27.08;;;17.65;;
7563;SDS011;3823;53.586;10.040;2022-10-30T00:12:31;24.52;;;14.93;;
7563;SDS011;3823;53.586;10.040;2022-10-30T00:14:57;26.15;;;16.10;;
7563;SDS011;3823;53.586;10.040;2022-10-30T00:17:23;27.30;;;15.35;;
7563;SDS011;3823;53.586;10.040;2022-10-30T00:19:48;24.20;;;17.20;;
7563;SDS011;3823;53.586;10.040;2022-10-30T00:22:14;22.73;;;15.93;;
7563;SDS011;3823;53.586;10.040;2022-10-30T00:24:39;31.52;;;15.35;;
7563;SDS011;3823;53.586;10.040;2022-10-30T00:27:05;29.42;;;15.60;;
7563;SDS011;3823;53.586;10.040;2022-10-30T00:29:31;24.30;;;17.17;;
7563;SDS011;3823;53.586;10.040;2022-10-30T00:31:56;25.95;;;16.42;;
7563;SDS011;3823;53.586;10.040;2022-10-30T00:34:22;23.58;;;14.73;;
7563;SDS011;3823;53.586;10.040;2022-10-30T00:36:48;24.45;;;17.33;;
7563;SDS011;3823;53.586;10.040;2022-10-30T00:39:13;21.85;;;15.20;;
7563;SDS011;3823;53.586;10.040;2022-10-30T00:41:39;23.55;;;14.98;;
7563;SDS011;3823;53.586;10.040;2022-10-30T00:49:37;22.98;;;15.35;;
7563;SDS011;3823;53.586;10.040;2022-10-30T00:52:11;23.35;;;14.48;;
7563;SDS011;3823;53.586;10.040;2022-10-30T00:54:37;20.10;;;14.63;;
7563;SDS011;3823;53.586;10.040;2022-10-30T00:57:03;24.02;;;14.75;;
7563;SDS011;3823;53.586;10.040;2022-10-30T00:59:31;24.08;;;16.52;;
7563;SDS011;3823;53.586;10.040;2022-10-30T01:02:00;21.88;;;14.88;;
7563;SDS011;3823;53.586;10.040;2022-10-30T01:04:27;21.63;;;14.05;;
7563;SDS011;3823;53.586;10.040;2022-10-30T01:06:55;19.35;;;14.48;;
7563;SDS011;3823;53.586;10.040;2022-10-30T01:09:22;32.80;;;15.52;;
7563;SDS011;3823;53.586;10.040;2022-10-30T01:11:48;23.20;;;15.82;;
7563;SDS011;3823;53.586;10.040;2022-10-30T01:14:14;25.90;;;17.58;;
7563;SDS011;3823;53.586;10.040;2022-10-30T01:16:58;26.00;;;14.52;;
7563;SDS011;3823;53.586;10.040;2022-10-30T01:19:47;23.02;;;14.82;;
7563;SDS011;3823;53.586;10.040;2022-10-30T01:22:33;22.92;;;14.02;;
7563;SDS011;3823;53.586;10.040;2022-10-30T01:28:17;26.75;;;15.60;;
7563;SDS011;3823;53.586;10.040;2022-10-30T01:31:22;31.10;;;14.95;;
7563;SDS011;3823;53.586;10.040;2022-10-30T01:39:26;25.02;;;16.30;;
7563;SDS011;3823;53.586;10.040;2022-10-30T01:41:55;24.92;;;15.95;;
7563;SDS011;3823;53.586;10.040;2022-10-30T01:44:23;23.50;;;16.45;;
7563;SDS011;3823;53.586;10.040;2022-10-30T02:00:04;20.55;;;14.98;;
7563;SDS011;3823;53.586;10.040;2022-10-30T02:02:30;23.98;;;13.95;;
7563;SDS011;3823;53.586;10.040;2022-10-30T02:04:57;29.30;;;16.13;;
7563;SDS011;3823;53.586;10.040;2022-10-30T02:07:23;19.15;;;12.02;;
7563;SDS011;3823;53.586;10.040;2022-10-30T02:09:49;26.10;;;16.08;;
7563;SDS011;3823;53.586;10.040;2022-10-30T02:12:16;20.50;;;13.32;;
7563;SDS011;3823;53.586;10.040;2022-10-30T02:14:44;19.92;;;13.15;;
7563;SDS011;3823;53.586;10.040;2022-10-30T02:17:13;23.45;;;13.27;;
7563;SDS011;3823;53.586;10.040;2022-10-30T02:19:39;18.55;;;12.80;;
7563;SDS011;3823;53.586;10.040;2022-10-30T02:22:04;21.02;;;12.93;;
7563;SDS011;3823;53.586;10.040;2022-10-30T02:24:30;21.13;;;13.57;;
7563;SDS011;3823;53.586;10.040;2022-10-30T02:26:56;23.83;;;14.75;;
7563;SDS011;3823;53.586;10.040;2022-10-30T02:29:22;21.30;;;13.18;;
7563;SDS011;3823;53.586;10.040;2022-10-30T02:31:47;23.30;;;13.18;;
7563;SDS011;3823;53.586;10.040;2022-10-30T02:34:13;18.90;;;14.63;;
7563;SDS011;3823;53.586;10.040;2022-10-30T02:36:40;16.52;;;12.57;;
7563;SDS011;3823;53.586;10.040;2022-10-30T02:39:06;20.58;;;13.65;;
7563;SDS011;3823;53.586;10.040;2022-10-30T02:41:32;20.50;;;12.55;;
7563;SDS011;3823;53.586;10.040;2022-10-30T02:43:57;22.58;;;12.48;;
7563;SDS011;3823;53.586;10.040;2022-10-30T02:46:23;20.30;;;13.02;;
7563;SDS011;3823;53.586;10.040;2022-10-30T02:48:49;18.80;;;12.13;;
7563;SDS011;3823;53.586;10.040;2022-10-30T02:51:14;21.25;;;12.40;;
7563;SDS011;3823;53.586;10.040;2022-10-30T02:53:40;21.27;;;12.90;;
7563;SDS011;3823;53.586;10.040;2022-10-30T02:56:07;26.20;;;12.70;;
7563;SDS011;3823;53.586;10.040;2022-10-30T02:58:34;22.27;;;12.35;;
7563;SDS011;3823;53.586;10.040;2022-10-30T03:01:04;19.42;;;12.38;;
7563;SDS011;3823;53.586;10.040;2022-10-30T03:03:31;24.60;;;12.73;;
7563;SDS011;3823;53.586;10.040;2022-10-30T03:05:58;16.58;;;11.20;;
7563;SDS011;3823;53.586;10.040;2022-10-30T03:08:25;25.15;;;13.02;;
7563;SDS011;3823;53.586;10.040;2022-10-30T03:10:50;29.27;;;12.85;;
7563;SDS011;3823;53.586;10.040;2022-10-30T03:13:16;18.67;;;13.32;;
7563;SDS011;3823;53.586;10.040;2022-10-30T03:15:41;15.18;;;11.85;;
7563;SDS011;3823;53.586;10.040;2022-10-30T03:18:07;18.15;;;11.80;;
7563;SDS011;3823;53.586;10.040;2022-10-30T03:20:32;15.85;;;12.27;;
7563;SDS011;3823;53.586;10.040;2022-10-30T03:22:58;27.38;;;12.90;;
7563;SDS011;3823;53.586;10.040;2022-10-30T03:25:23;21.23;;;12.60;;
7563;SDS011;3823;53.586;10.040;2022-10-30T03:27:49;17.67;;;11.68;;
7563;SDS011;3823;53.586;10.040;2022-10-30T03:30:14;21.02;;;12.43;;
7563;SDS011;3823;53.586;10.040;2022-10-30T03:32:40;15.82;;;11.93;;
7563;SDS011;3823;53.586;10.040;2022-10-30T03:35:06;21.75;;;12.55;;
7563;SDS011;3823;53.586;10.040;2022-10-30T03:37:31;17.45;;;12.40;;
7563;SDS011;3823;53.586;10.040;2022-10-30T03:39:57;18.90;;;12.65;;
7563;SDS011;3823;53.586;10.040;2022-10-30T03:42:22;18.77;;;12.07;;
7563;SDS011;3823;53.586;10.040;2022-10-30T03:44:48;15.35;;;13.23;;
7563;SDS011;3823;53.586;10.040;2022-10-30T03:47:14;17.50;;;12.38;;
7563;SDS011;3823;53.586;10.040;2022-10-30T03:49:39;21.27;;;12.18;;
7563;SDS011;3823;53.586;10.040;2022-10-30T03:52:05;20.17;;;12.10;;
7563;SDS011;3823;53.586;10.040;2022-10-30T03:54:30;16.45;;;11.10;;
7563;SDS011;3823;53.586;10.040;2022-10-30T03:56:56;20.42;;;11.30;;
7563;SDS011;3823;53.586;10.040;2022-10-30T03:59:21;23.73;;;13.77;;
7563;SDS011;3823;53.586;10.040;2022-10-30T04:01:47;25.02;;;12.10;;
7563;SDS011;3823;53.586;10.040;2022-10-30T04:04:12;15.77;;;11.27;;
7563;SDS011;3823;53.586;10.040;2022-10-30T04:06:38;24.20;;;11.32;;
7563;SDS011;3823;53.586;10.040;2022-10-30T04:09:04;20.05;;;10.85;;
7563;SDS011;3823;53.586;10.040;2022-10-30T04:11:29;19.50;;;12.95;;
7563;SDS011;3823;53.586;10.040;2022-10-30T04:13:55;23.17;;;12.18;;
7563;SDS011;3823;53.586;10.040;2022-10-30T04:16:20;29.40;;;11.63;;
7563;SDS011;3823;53.586;10.040;2022-10-30T04:18:46;17.35;;;10.10;;
7563;SDS011;3823;53.586;10.040;2022-10-30T04:21:11;21.17;;;12.68;;
7563;SDS011;3823;53.586;10.040;2022-10-30T04:23:37;15.57;;;12.20;;
7563;SDS011;3823;53.586;10.040;2022-10-30T04:26:03;15.85;;;11.43;;
7563;SDS011;3823;53.586;10.040;2022-10-30T04:28:28;17.10;;;11.40;;
7563;SDS011;3823;53.586;10.040;2022-10-30T04:30:54;13.70;;;9.85;;
7563;SDS011;3823;53.586;10.040;2022-10-30T04:33:20;16.67;;;10.73;;
7563;SDS011;3823;53.586;10.040;2022-10-30T04:35:46;17.48;;;11.85;;
7563;SDS011;3823;53.586;10.040;2022-10-30T04:38:12;16.45;;;11.90;;
7563;SDS011;3823;53.586;10.040;2022-10-30T04:40:39;20.88;;;11.48;;
7563;SDS011;3823;53.586;10.040;2022-10-30T04:43:07;21.08;;;12.30;;
7563;SDS011;3823;53.586;10.040;2022-10-30T04:45:34;23.55;;;11.25;;
7563;SDS011;3823;53.586;10.040;2022-10-30T04:48:05;14.77;;;11.00;;
7563;SDS011;3823;53.586;10.040;2022-10-30T04:50:34;17.05;;;11.50;;
7563;SDS011;3823;53.586;10.040;2022-10-30T04:53:11;14.93;;;11.50;;
7563;SDS011;3823;53.586;10.040;2022-10-30T04:55:38;18.70;;;11.55;;
7563;SDS011;3823;53.586;10.040;2022-10-30T04:58:04;16.58;;;11.95;;
7563;SDS011;3823;53.586;10.040;2022-10-30T05:00:32;16.50;;;10.88;;
7563;SDS011;3823;53.586;10.040;2022-10-30T05:02:58;16.17;;;10.48;;
7563;SDS011;3823;53.586;10.040;2022-10-30T05:05:25;20.90;;;11.30;;
7563;SDS011;3823;53.586;10.040;2022-10-30T05:07:51;15.10;;;11.15;;
7563;SDS011;3823;53.586;10.040;2022-10-30T05:10:16;16.00;;;10.07;;
7563;SDS011;3823;53.586;10.040;2022-10-30T05:12:42;17.55;;;11.45;;
7563;SDS011;3823;53.586;10.040;2022-10-30T05:15:09;21.38;;;11.27;;
7563;SDS011;3823;53.586;10.040;2022-10-30T05:17:36;12.52;;;10.73;;
7563;SDS011;3823;53.586;10.040;2022-10-30T05:20:01;12.27;;;9.55;;
7563;SDS011;3823;53.586;10.040;2022-10-30T05:22:27;16.52;;;11.57;;
7563;SDS011;3823;53.586;10.040;2022-10-30T05:24:53;22.35;;;10.82;;
7563;SDS011;3823;53.586;10.040;2022-10-30T05:27:18;18.15;;;11.88;;
7563;SDS011;3823;53.586;10.040;2022-10-30T05:29:44;18.08;;;11.13;;
7563;SDS011;3823;53.586;10.040;2022-10-30T05:32:09;13.13;;;9.80;;
7563;SDS011;3823;53.586;10.040;2022-10-30T05:34:35;16.25;;;10.45;;
7563;SDS011;3823;53.586;10.040;2022-10-30T05:37:00;13.60;;;11.30;;
7563;SDS011;3823;53.586;10.040;2022-10-30T05:39:26;17.52;;;11.18;;
7563;SDS011;3823;53.586;10.040;2022-10-30T05:41:52;13.52;;;11.23;;
7563;SDS011;3823;53.586;10.040;2022-10-30T05:44:18;16.65;;;10.80;;
7563;SDS011;3823;53.586;10.040;2022-10-30T05:46:43;20.20;;;11.23;;
7563;SDS011;3823;53.586;10.040;2022-10-30T05:49:09;20.33;;;11.18;;
7563;SDS011;3823;53.586;10.040;2022-10-30T05:51:35;17.63;;;10.90;;
7563;SDS011;3823;53.586;10.040;2022-10-30T05:54:00;21.50;;;12.60;;
7563;SDS011;3823;53.586;10.040;2022-10-30T05:56:26;19.60;;;11.57;;
7563;SDS011;3823;53.586;10.040;2022-10-30T05:58:51;12.65;;;9.32;;
7563;SDS011;3823;53.586;10.040;2022-10-30T06:01:17;15.93;;;10.40;;
7563;SDS011;3823;53.586;10.040;2022-10-30T06:03:43;18.23;;;11.85;;
7563;SDS011;3823;53.586;10.040;2022-10-30T06:06:08;15.80;;;11.35;;
7563;SDS011;3823;53.586;10.040;2022-10-30T06:08:34;16.40;;;11.15;;
7563;SDS011;3823;53.586;10.040;2022-10-30T06:10:59;19.15;;;10.55;;
7563;SDS011;3823;53.586;10.040;2022-10-30T06:13:25;18.75;;;11.27;;
7563;SDS011;3823;53.586;10.040;2022-10-30T06:15:53;17.02;;;10.23;;
7563;SDS011;3823;53.586;10.040;2022-10-30T06:18:20;16.83;;;11.25;;
7563;SDS011;3823;53.586;10.040;2022-10-30T06:20:46;21.77;;;11.88;;
7563;SDS011;3823;53.586;10.040;2022-10-30T06:23:11;19.00;;;11.48;;
7563;SDS011;3823;53.586;10.040;2022-10-30T06:25:37;13.50;;;10.73;;
7563;SDS011;3823;53.586;10.040;2022-10-30T06:28:02;13.02;;;11.63;;
7563;SDS011;3823;53.586;10.040;2022-10-30T06:30:28;23.63;;;13.40;;
7563;SDS011;3823;53.586;10.040;2022-10-30T06:35:23;15.52;;;11.15;;
7563;SDS011;3823;53.586;10.040;2022-10-30T06:37:49;14.57;;;10.35;;
7563;SDS011;3823;53.586;10.040;2022-10-30T06:40:15;14.43;;;10.82;;
7563;SDS011;3823;53.586;10.040;2022-10-30T06:42:45;15.77;;;11.10;;
7563;SDS011;3823;53.586;10.040;2022-10-30T06:45:12;19.08;;;11.82;;
7563;SDS011;3823;53.586;10.040;2022-10-30T06:47:38;20.70;;;10.65;;
7563;SDS011;3823;53.586;10.040;2022-10-30T06:50:05;24.88;;;12.00;;
7563;SDS011;3823;53.586;10.040;2022-10-30T06:52:32;15.40;;;10.90;;
7563;SDS011;3823;53.586;10.040;2022-10-30T06:54:57;12.55;;;9.38;;
7563;SDS011;3823;53.586;10.040;2022-10-30T06:57:23;14.77;;;9.45;;
7563;SDS011;3823;53.586;10.040;2022-10-30T06:59:48;19.48;;;10.68;;
7563;SDS011;3823;53.586;10.040;2022-10-30T07:02:14;24.08;;;10.88;;
7563;SDS011;3823;53.586;10.040;2022-10-30T07:04:40;17.95;;;10.88;;
7563;SDS011;3823;53.586;10.040;2022-10-30T07:07:05;11.00;;;9.68;;
7563;SDS011;3823;53.586;10.040;2022-10-30T07:09:31;11.35;;;9.15;;
7563;SDS011;3823;53.586;10.040;2022-10-30T07:11:56;13.32;;;9.68;;
7563;SDS011;3823;53.586;10.040;2022-10-30T07:14:22;17.33;;;11.60;;
7563;SDS011;3823;53.586;10.040;2022-10-30T07:16:48;16.88;;;11.25;;
7563;SDS011;3823;53.586;10.040;2022-10-30T07:19:14;14.38;;;10.75;;
7563;SDS011;3823;53.586;10.040;2022-10-30T07:21:39;18.73;;;10.30;;
7563;SDS011;3823;53.586;10.040;2022-10-30T07:24:05;13.82;;;8.98;;
7563;SDS011;3823;53.586;10.040;2022-10-30T07:26:31;12.45;;;9.20;;
7563;SDS011;3823;53.586;10.040;2022-10-30T07:28:57;19.88;;;10.80;;
7563;SDS011;3823;53.586;10.040;2022-10-30T07:31:23;13.23;;;11.27;;
7563;SDS011;3823;53.586;10.040;2022-10-30T07:33:48;19.05;;;10.30;;
7563;SDS011;3823;53.586;10.040;2022-10-30T07:36:14;16.10;;;9.10;;
7563;SDS011;3823;53.586;10.040;2022-10-30T07:38:40;13.23;;;10.10;;
7563;SDS011;3823;53.586;10.040;2022-10-30T07:41:05;16.33;;;9.27;;
7563;SDS011;3823;53.586;10.040;2022-10-30T07:43:31;16.33;;;9.40;;
7563;SDS011;3823;53.586;10.040;2022-10-30T07:45:56;18.77;;;10.18;;
7563;SDS011;3823;53.586;10.040;2022-10-30T07:48:22;17.35;;;9.35;;
7563;SDS011;3823;53.586;10.040;2022-10-30T07:50:48;17.42;;;9.85;;
7563;SDS011;3823;53.586;10.040;2022-10-30T07:53:13;15.93;;;9.70;;
7563;SDS011;3823;53.586;10.040;2022-10-30T07:55:40;17.30;;;9.93;;
7563;SDS011;3823;53.586;10.040;2022-10-30T07:58:06;12.48;;;8.70;;
7563;SDS011;3823;53.586;10.040;2022-10-30T08:00:32;14.27;;;10.07;;
7563;SDS011;3823;53.586;10.040;2022-10-30T08:02:58;16.27;;;9.93;;
7563;SDS011;3823;53.586;10.040;2022-10-30T08:05:23;15.95;;;9.75;;
7563;SDS011;3823;53.586;10.040;2022-10-30T08:07:49;14.23;;;8.55;;
7563;SDS011;3823;53.586;10.040;2022-10-30T08:10:14;12.73;;;9.45;;
7563;SDS011;3823;53.586;10.040;2022-10-30T08:12:40;21.80;;;10.95;;
7563;SDS011;3823;53.586;10.040;2022-10-30T08:15:08;14.65;;;9.75;;
7563;SDS011;3823;53.586;10.040;2022-10-30T08:17:41;27.65;;;12.60;;
7563;SDS011;3823;53.586;10.040;2022-10-30T08:20:08;12.48;;;9.43;;
7563;SDS011;3823;53.586;10.040;2022-10-30T08:22:42;19.20;;;9.13;;
7563;SDS011;3823;53.586;10.040;2022-10-30T08:25:15;15.43;;;9.70;;
7563;SDS011;3823;53.586;10.040;2022-10-30T08:28:15;13.18;;;10.68;;
7563;SDS011;3823;53.586;10.040;2022-10-30T08:30:35;11.10;;;8.20;;
7563;SDS011;3823;53.586;10.040;2022-10-30T08:33:06;19.25;;;9.45;;
7563;SDS011;3823;53.586;10.040;2022-10-30T08:35:35;10.98;;;9.20;;
7563;SDS011;3823;53.586;10.040;2022-10-30T08:38:01;15.10;;;10.32;;
7563;SDS011;3823;53.586;10.040;2022-10-30T08:40:29;20.80;;;11.80;;
7563;SDS011;3823;53.586;10.040;2022-10-30T08:42:55;11.45;;;9.07;;
7563;SDS011;3823;53.586;10.040;2022-10-30T08:45:22;16.65;;;10.23;;
7563;SDS011;3823;53.586;10.040;2022-10-30T08:47:55;24.10;;;11.38;;
7563;SDS011;3823;53.586;10.040;2022-10-30T08:50:21;15.80;;;10.95;;
7563;SDS011;3823;53.586;10.040;2022-10-30T08:52:47;21.05;;;10.25;;
7563;SDS011;3823;53.586;10.040;2022-10-30T08:55:13;16.20;;;10.05;;
7563;SDS011;3823;53.586;10.040;2022-10-30T08:57:38;13.93;;;9.95;;
7563;SDS011;3823;53.586;10.040;2022-10-30T09:00:04;17.40;;;10.57;;
7563;SDS011;3823;53.586;10.040;2022-10-30T09:02:31;19.02;;;11.40;;
7563;SDS011;3823;53.586;10.040;2022-10-30T09:04:58;16.45;;;11.23;;
7563;SDS011;3823;53.586;10.040;2022-10-30T09:07:23;11.98;;;8.70;;
7563;SDS011;3823;53.586;10.040;2022-10-30T09:09:49;18.05;;;10.48;;
7563;SDS011;3823;53.586;10.040;2022-10-30T09:12:14;16.50;;;10.10;;
7563;SDS011;3823;53.586;10.040;2022-10-30T09:14:40;11.80;;;8.93;;
7563;SDS011;3823;53.586;10.040;2022-10-30T09:17:06;13.00;;;9.55;;
7563;SDS011;3823;53.586;10.040;2022-10-30T09:19:31;12.52;;;9.63;;
7563;SDS011;3823;53.586;10.040;2022-10-30T09:21:57;15.35;;;9.20;;
7563;SDS011;3823;53.586;10.040;2022-10-30T09:24:23;15.70;;;8.70;;
7563;SDS011;3823;53.586;10.040;2022-10-30T09:26:48;17.23;;;9.32;;
7563;SDS011;3823;53.586;10.040;2022-10-30T09:29:14;23.35;;;10.07;;
7563;SDS011;3823;53.586;10.040;2022-10-30T09:31:39;16.67;;;9.30;;
7563;SDS011;3823;53.586;10.040;2022-10-30T09:34:05;12.02;;;9.85;;
7563;SDS011;3823;53.586;10.040;2022-10-30T09:36:31;13.77;;;9.50;;
7563;SDS011;3823;53.586;10.040;2022-10-30T09:38:57;26.02;;;9.65;;
7563;SDS011;3823;53.586;10.040;2022-10-30T09:55:38;11.02;;;7.95;;
7563;SDS011;3823;53.586;10.040;2022-10-30T09:58:20;32.88;;;10.52;;
7563;SDS011;3823;53.586;10.040;2022-10-30T10:01:15;10.43;;;8.13;;
7563;SDS011;3823;53.586;10.040;2022-10-30T10:06:56;10.68;;;8.57;;
7563;SDS011;3823;53.586;10.040;2022-10-30T10:09:28;13.27;;;9.93;;
7563;SDS011;3823;53.586;10.040;2022-10-30T10:12:03;18.90;;;8.32;;
7563;SDS011;3823;53.586;10.040;2022-10-30T10:14:33;13.73;;;8.50;;
7563;SDS011;3823;53.586;10.040;2022-10-30T10:17:02;12.60;;;8.95;;
7563;SDS011;3823;53.586;10.040;2022-10-30T10:19:50;15.45;;;8.52;;
7563;SDS011;3823;53.586;10.040;2022-10-30T10:25:15;16.45;;;9.43;;
7563;SDS011;3823;53.586;10.040;2022-10-30T10:27:58;18.10;;;9.85;;
7563;SDS011;3823;53.586;10.040;2022-10-30T10:33:29;18.13;;;10.02;;
7563;SDS011;3823;53.586;10.040;2022-10-30T10:36:21;16.65;;;9.10;;
7563;SDS011;3823;53.586;10.040;2022-10-30T10:42:23;13.98;;;9.05;;
7563;SDS011;3823;53.586;10.040;2022-10-30T10:45:11;14.70;;;8.75;;
7563;SDS011;3823;53.586;10.040;2022-10-30T10:47:56;12.55;;;8.55;;
7563;SDS011;3823;53.586;10.040;2022-10-30T10:50:44;16.23;;;9.30;;
7563;SDS011;3823;53.586;10.040;2022-10-30T10:53:23;20.13;;;9.48;;
7563;SDS011;3823;53.586;10.040;2022-10-30T10:55:55;11.18;;;8.07;;
7563;SDS011;3823;53.586;10.040;2022-10-30T10:58:30;17.65;;;8.95;;
7563;SDS011;3823;53.586;10.040;2022-10-30T11:01:03;13.68;;;8.57;;
7563;SDS011;3823;53.586;10.040;2022-10-30T11:03:41;16.83;;;9.40;;
7563;SDS011;3823;53.586;10.040;2022-10-30T11:06:11;18.75;;;10.77;;
7563;SDS011;3823;53.586;10.040;2022-10-30T11:08:45;15.27;;;9.18;;
7563;SDS011;3823;53.586;10.040;2022-10-30T11:11:14;14.85;;;9.32;;
7563;SDS011;3823;53.586;10.040;2022-10-30T11:13:40;17.92;;;8.85;;
7563;SDS011;3823;53.586;10.040;2022-10-30T11:16:20;17.05;;;9.00;;
7563;SDS011;3823;53.586;10.040;2022-10-30T11:18:58;14.20;;;7.72;;
7563;SDS011;3823;53.586;10.040;2022-10-30T11:21:25;18.90;;;9.43;;
7563;SDS011;3823;53.586;10.040;2022-10-30T11:23:53;17.90;;;7.93;;
7563;SDS011;3823;53.586;10.040;2022-10-30T11:28:48;17.60;;;8.77;;
7563;SDS011;3823;53.586;10.040;2022-10-30T11:34:35;15.18;;;8.80;;
7563;SDS011;3823;53.586;10.040;2022-10-30T11:37:01;11.43;;;9.15;;
7563;SDS011;3823;53.586;10.040;2022-10-30T11:39:29;18.38;;;8.77;;
7563;SDS011;3823;53.586;10.040;2022-10-30T11:42:10;20.70;;;9.38;;
7563;SDS011;3823;53.586;10.040;2022-10-30T11:44:47;21.15;;;8.40;;
7563;SDS011;3823;53.586;10.040;2022-10-30T11:47:13;14.70;;;7.80;;
7563;SDS011;3823;53.586;10.040;2022-10-30T11:49:42;11.68;;;8.10;;
7563;SDS011;3823;53.586;10.040;2022-10-30T11:52:13;13.70;;;7.63;;
7563;SDS011;3823;53.586;10.040;2022-10-30T11:54:42;18.60;;;8.25;;
7563;SDS011;3823;53.586;10.040;2022-10-30T11:57:22;12.50;;;7.43;;
7563;SDS011;3823;53.586;10.040;2022-10-30T11:59:55;12.07;;;7.10;;
7563;SDS011;3823;53.586;10.040;2022-10-30T12:02:23;14.73;;;6.88;;
7563;SDS011;3823;53.586;10.040;2022-10-30T12:04:54;10.88;;;6.25;;
7563;SDS011;3823;53.586;10.040;2022-10-30T12:07:28;21.80;;;7.82;;
7563;SDS011;3823;53.586;10.040;2022-10-30T12:09:55;11.02;;;6.75;;
7563;SDS011;3823;53.586;10.040;2022-10-30T12:12:25;13.07;;;6.80;;
7563;SDS011;3823;53.586;10.040;2022-10-30T12:15:07;17.25;;;6.82;;
7563;SDS011;3823;53.586;10.040;2022-10-30T12:17:33;12.60;;;7.18;;
7563;SDS011;3823;53.586;10.040;2022-10-30T12:19:59;9.13;;;6.45;;
7563;SDS011;3823;53.586;10.040;2022-10-30T12:22:29;12.93;;;6.53;;
7563;SDS011;3823;53.586;10.040;2022-10-30T12:24:57;20.17;;;8.75;;
7563;SDS011;3823;53.586;10.040;2022-10-30T12:27:25;17.92;;;8.13;;
7563;SDS011;3823;53.586;10.040;2022-10-30T12:30:04;13.45;;;6.80;;
7563;SDS011;3823;53.586;10.040;2022-10-30T12:35:14;11.07;;;7.32;;
7563;SDS011;3823;53.586;10.040;2022-10-30T12:37:57;13.85;;;8.85;;
7563;SDS011;3823;53.586;10.040;2022-10-30T12:40:34;13.90;;;8.20;;
7563;SDS011;3823;53.586;10.040;2022-10-30T12:43:12;13.70;;;7.65;;
7563;SDS011;3823;53.586;10.040;2022-10-30T12:45:41;16.75;;;7.85;;
7563;SDS011;3823;53.586;10.040;2022-10-30T12:48:55;18.80;;;9.45;;
7563;SDS011;3823;53.586;10.040;2022-10-30T12:54:00;15.43;;;7.30;;
7563;SDS011;3823;53.586;10.040;2022-10-30T12:56:39;11.13;;;7.32;;
7563;SDS011;3823;53.586;10.040;2022-10-30T13:01:48;15.25;;;7.95;;
7563;SDS011;3823;53.586;10.040;2022-10-30T13:04:38;18.48;;;6.82;;
7563;SDS011;3823;53.586;10.040;2022-10-30T13:07:23;12.00;;;7.65;;
7563;SDS011;3823;53.586;10.040;2022-10-30T13:10:20;16.30;;;8.32;;
7563;SDS011;3823;53.586;10.040;2022-10-30T13:12:52;8.88;;;7.57;;
7563;SDS011;3823;53.586;10.040;2022-10-30T13:15:27;15.27;;;7.07;;
7563;SDS011;3823;53.586;10.040;2022-10-30T13:17:57;18.85;;;7.60;;
7563;SDS011;3823;53.586;10.040;2022-10-30T13:20:25;10.07;;;7.53;;
7563;SDS011;3823;53.586;10.040;2022-10-30T13:28:32;10.68;;;7.55;;
7563;SDS011;3823;53.586;10.040;2022-10-30T13:31:08;13.13;;;7.20;;
7563;SDS011;3823;53.586;10.040;2022-10-30T13:33:44;9.20;;;6.57;;
7563;SDS011;3823;53.586;10.040;2022-10-30T13:36:20;14.32;;;7.70;;
7563;SDS011;3823;53.586;10.040;2022-10-30T13:38:57;11.63;;;7.10;;
7563;SDS011;3823;53.586;10.040;2022-10-30T13:42:14;10.68;;;7.00;;
7563;SDS011;3823;53.586;10.040;2022-10-30T13:44:56;12.10;;;7.30;;
7563;SDS011;3823;53.586;10.040;2022-10-30T13:52:51;19.35;;;8.00;;
7563;SDS011;3823;53.586;10.040;2022-10-30T13:55:21;23.00;;;8.35;;
7563;SDS011;3823;53.586;10.040;2022-10-30T14:00:32;17.58;;;7.05;;
7563;SDS011;3823;53.586;10.040;2022-10-30T14:03:32;20.05;;;8.32;;
7563;SDS011;3823;53.586;10.040;2022-10-30T14:11:38;13.68;;;7.40;;
7563;SDS011;3823;53.586;10.040;2022-10-30T14:14:04;13.93;;;8.70;;
7563;SDS011;3823;53.586;10.040;2022-10-30T14:17:09;15.13;;;7.50;;
7563;SDS011;3823;53.586;10.040;2022-10-30T14:22:30;11.10;;;7.53;;
7563;SDS011;3823;53.586;10.040;2022-10-30T14:24:56;11.90;;;7.95;;
7563;SDS011;3823;53.586;10.040;2022-10-30T14:27:30;10.88;;;7.15;;
7563;SDS011;3823;53.586;10.040;2022-10-30T14:29:57;18.95;;;7.47;;
7563;SDS011;3823;53.586;10.040;2022-10-30T14:39:47;14.00;;;8.18;;
7563;SDS011;3823;53.586;10.040;2022-10-30T14:47:51;20.08;;;8.75;;
7563;SDS011;3823;53.586;10.040;2022-10-30T14:52:59;26.30;;;9.38;;
7563;SDS011;3823;53.586;10.040;2022-10-30T14:58:30;19.20;;;8.18;;
7563;SDS011;3823;53.586;10.040;2022-10-30T15:03:51;12.98;;;7.30;;
7563;SDS011;3823;53.586;10.040;2022-10-30T15:09:38;16.05;;;8.68;;
7563;SDS011;3823;53.586;10.040;2022-10-30T15:12:25;13.80;;;7.70;;
7563;SDS011;3823;53.586;10.040;2022-10-30T15:15:02;17.35;;;8.40;;
7563;SDS011;3823;53.586;10.040;2022-10-30T15:17:31;13.60;;;7.93;;
7563;SDS011;3823;53.586;10.040;2022-10-30T15:20:02;12.32;;;8.10;;
7563;SDS011;3823;53.586;10.040;2022-10-30T15:22:31;19.50;;;10.13;;
7563;SDS011;3823;53.586;10.040;2022-10-30T15:24:59;15.98;;;9.90;;
7563;SDS011;3823;53.586;10.040;2022-10-30T15:27:26;13.63;;;9.18;;
7563;SDS011;3823;53.586;10.040;2022-10-30T15:30:00;19.35;;;9.40;;
7563;SDS011;3823;53.586;10.040;2022-10-30T15:32:28;27.98;;;10.13;;
7563;SDS011;3823;53.586;10.040;2022-10-30T15:34:55;17.08;;;9.57;;
7563;SDS011;3823;53.586;10.040;2022-10-30T15:37:21;16.35;;;9.55;;
7563;SDS011;3823;53.586;10.040;2022-10-30T15:39:47;13.77;;;8.20;;
7563;SDS011;3823;53.586;10.040;2022-10-30T15:42:13;14.27;;;8.38;;
7563;SDS011;3823;53.586;10.040;2022-10-30T15:44:40;12.98;;;9.13;;
7563;SDS011;3823;53.586;10.040;2022-10-30T15:47:15;14.63;;;9.40;;
7563;SDS011;3823;53.586;10.040;2022-10-30T15:49:50;18.67;;;8.63;;
7563;SDS011;3823;53.586;10.040;2022-10-30T15:52:25;14.00;;;8.45;;
7563;SDS011;3823;53.586;10.040;2022-10-30T15:54:53;18.23;;;9.52;;
7563;SDS011;3823;53.586;10.040;2022-10-30T15:57:34;20.25;;;10.40;;
7563;SDS011;3823;53.586;10.040;2022-10-30T16:00:16;17.70;;;10.15;;
7563;SDS011;3823;53.586;10.040;2022-10-30T16:03:36;14.75;;;8.63;;
7563;SDS011;3823;53.586;10.040;2022-10-30T16:05:43;15.82;;;9.68;;
7563;SDS011;3823;53.586;10.040;2022-10-30T16:08:18;14.20;;;9.70;;
7563;SDS011;3823;53.586;10.040;2022-10-30T16:10:46;14.38;;;10.13;;
7563;SDS011;3823;53.586;10.040;2022-10-30T16:13:16;16.17;;;10.13;;
7563;SDS011;3823;53.586;10.040;2022-10-30T16:15:43;22.60;;;10.95;;
7563;SDS011;3823;53.586;10.040;2022-10-30T16:20:46;22.52;;;10.25;;
7563;SDS011;3823;53.586;10.040;2022-10-30T16:23:15;24.08;;;11.23;;
7563;SDS011;3823;53.586;10.040;2022-10-30T16:25:41;18.55;;;12.13;;
7563;SDS011;3823;53.586;10.040;2022-10-30T16:28:21;18.55;;;11.57;;
7563;SDS011;3823;53.586;10.040;2022-10-30T16:30:55;15.43;;;10.52;;
7563;SDS011;3823;53.586;10.040;2022-10-30T16:33:26;20.83;;;11.00;;
7563;SDS011;3823;53.586;10.040;2022-10-30T16:35:53;17.80;;;9.50;;
7563;SDS011;3823;53.586;10.040;2022-10-30T16:38:20;27.70;;;11.15;;
7563;SDS011;3823;53.586;10.040;2022-10-30T16:40:47;17.75;;;11.25;;
7563;SDS011;3823;53.586;10.040;2022-10-30T16:43:24;18.60;;;11.68;;
7563;SDS011;3823;53.586;10.040;2022-10-30T16:45:54;18.48;;;12.35;;
7563;SDS011;3823;53.586;10.040;2022-10-30T16:48:40;22.20;;;12.23;;
7563;SDS011;3823;53.586;10.040;2022-10-30T16:51:20;21.40;;;11.93;;
7563;SDS011;3823;53.586;10.040;2022-10-30T16:53:46;26.73;;;13.10;;